Time;durP1;ratioP1;P1;durP2;ratioP2;P2;SDS_P1;SDS_P2;PMS_P1;PMS_P2;Temp;Humidity;BMP_temperature;BMP_pressure;BME280_temperature;BME280_humidity;BME280_pressure;Samples;Min_cycle;Max_cycle;Signal;HPM_P1;HPM_P2
2022/10/26 00:00:48;;;;;;;21.10;6.72;;;;;;;15.76;60.25;95677.09;5020077;28;20036;-75
2022/10/26 00:03:14;;;;;;;22.10;7.88;;;;;;;15.99;59.99;95714.69;5038271;28;20052;-75
2022/10/26 00:05:40;;;;;;;25.02;7.07;;;;;;;15.98;60.16;95724.59;5002424;28;20052;-77
2022/10/26 00:08:07;;;;;;;22.10;7.00;;;;;;;15.97;60.41;95717.66;5017968;28;20591;-76
2022/10/26 00:10:39;;;;;;;19.55;7.07;;;;;;;15.97;60.26;95714.16;5015718;28;20049;-76
2022/10/26 00:13:07;;;;;;;22.05;7.15;;;;;;;15.99;60.16;95712.00;5017870;28;20037;-76
2022/10/26 00:15:33;;;;;;;23.13;7.72;;;;;;;15.98;60.33;95715.75;5016279;28;20049;-76
2022/10/26 00:17:58;;;;;;;29.33;7.28;;;;;;;15.72;60.14;95683.28;5018274;28;20034;-76
2022/10/26 00:20:24;;;;;;;17.35;7.10;;;;;;;15.64;60.71;95689.34;5017951;28;20174;-76
2022/10/26 00:22:51;;;;;;;21.48;8.43;;;;;;;15.73;60.92;95712.41;5017941;28;20076;-76
2022/10/26 00:25:16;;;;;;;22.80;8.23;;;;;;;15.41;61.27;95662.38;5009904;28;20053;-76
2022/10/26 00:27:42;;;;;;;19.00;7.20;;;;;;;15.36;61.15;95653.66;5035739;28;20090;-77
2022/10/26 00:30:08;;;;;;;18.50;7.50;;;;;;;15.10;61.61;95626.56;5037713;28;20110;-75
2022/10/26 00:32:34;;;;;;;25.75;6.63;;;;;;;15.27;61.15;95650.84;5019341;28;20056;-76
2022/10/26 00:34:59;;;;;;;17.30;7.13;;;;;;;15.74;61.20;95714.00;5037393;28;20041;-75
2022/10/26 00:37:25;;;;;;;22.83;6.93;;;;;;;15.76;61.14;95719.06;5036696;28;20049;-75
2022/10/26 00:39:50;;;;;;;20.50;7.10;;;;;;;15.44;61.12;95661.81;5037140;28;20060;-75
2022/10/26 00:42:21;;;;;;;19.73;6.35;;;;;;;15.78;60.74;95709.69;5035710;28;20044;-75
2022/10/26 00:44:46;;;;;;;15.90;7.13;;;;;;;15.77;60.60;95713.44;5016578;28;20400;-75
2022/10/26 00:47:22;;;;;;;21.00;6.97;;;;;;;15.75;60.93;95714.81;5017073;28;20041;-76
2022/10/26 00:49:51;;;;;;;17.30;6.60;;;;;;;15.58;60.67;95683.25;5016780;28;20511;-75
2022/10/26 00:52:19;;;;;;;26.80;6.85;;;;;;;15.75;61.01;95714.81;5015471;28;20037;-75
2022/10/26 00:54:46;;;;;;;21.65;6.75;;;;;;;15.30;61.07;95647.59;5014297;28;20044;-75
2022/10/26 00:57:14;;;;;;;17.83;6.88;;;;;;;15.64;61.02;95716.84;5036969;28;20037;-75
2022/10/26 00:59:41;;;;;;;18.30;6.75;;;;;;;15.42;60.86;95663.97;5036555;28;20025;-76
2022/10/26 01:02:07;;;;;;;17.73;7.32;;;;;;;15.43;60.99;95676.25;5036146;28;20108;-75
2022/10/26 01:04:34;;;;;;;27.73;7.85;;;;;;;15.65;61.30;95701.59;5034689;28;20052;-75
2022/10/26 01:07:03;;;;;;;22.27;6.93;;;;;;;15.43;61.14;95662.09;5036235;28;20044;-75
2022/10/26 01:09:28;;;;;;;24.42;7.38;;;;;;;15.69;61.16;95703.41;5036091;28;20037;-76
2022/10/26 01:11:54;;;;;;;18.73;7.03;;;;;;;15.34;61.39;95653.94;5036671;28;20449;-76
2022/10/26 01:14:20;;;;;;;17.25;6.80;;;;;;;15.35;61.03;95668.91;5034845;28;20185;-76
2022/10/26 01:17:16;;;;;;;22.05;6.97;;;;;;;15.77;61.11;95704.63;5036791;28;20040;-76
2022/10/26 01:20:19;;;;;;;18.90;7.03;;;;;;;15.63;61.20;95712.59;5030436;28;20037;-76
2022/10/26 01:23:09;;;;;;;22.77;7.80;;;;;;;15.39;62.01;95710.00;4995141;28;20060;-73
2022/10/26 01:25:47;;;;;;;23.63;7.55;;;;;;;15.53;61.69;95712.75;4996943;28;20046;-74
2022/10/26 01:28:34;;;;;;;22.00;6.88;;;;;;;15.55;61.35;95707.13;4997033;28;20041;-74
2022/10/26 01:31:04;;;;;;;20.55;6.95;;;;;;;15.66;61.11;95700.50;4995879;28;20050;-75
2022/10/26 01:33:37;;;;;;;17.70;7.05;;;;;;;15.49;60.96;95670.81;4997234;28;20128;-75
2022/10/26 01:36:11;;;;;;;27.95;7.95;;;;;;;15.80;60.42;95701.34;4996247;28;20058;-75
2022/10/26 01:39:12;;;;;;;26.73;7.65;;;;;;;15.67;60.85;95702.09;5008213;28;20143;-75
2022/10/26 01:42:08;;;;;;;23.90;7.45;;;;;;;15.08;61.51;95628.72;4996792;28;20049;-76
2022/10/26 01:44:55;;;;;;;20.55;7.22;;;;;;;15.15;61.60;95642.50;5014648;28;20526;-77
2022/10/26 01:47:23;;;;;;;19.65;7.47;;;;;;;15.29;62.83;95691.44;5015995;28;20659;-76
2022/10/26 01:49:54;;;;;;;16.27;7.13;;;;;;;15.12;62.79;95674.34;5007668;28;20112;-77
2022/10/26 01:52:20;;;;;;;26.88;8.25;;;;;;;15.17;63.11;95691.09;4994807;28;20046;-77
2022/10/26 01:54:45;;;;;;;23.25;7.53;;;;;;;14.61;63.45;95619.78;4996378;28;20037;-77
2022/10/26 01:57:14;;;;;;;31.50;8.30;;;;;;;15.04;63.55;95695.28;4994509;28;20056;-77
2022/10/26 01:59:55;;;;;;;18.33;6.82;;;;;;;15.15;63.34;95693.25;4997215;28;20041;-76
2022/10/26 02:02:37;;;;;;;20.73;7.95;;;;;;;15.14;63.57;95689.00;5000063;28;20045;-76
2022/10/26 02:05:42;;;;;;;20.13;8.10;;;;;;;15.14;63.44;95672.16;4985872;28;20042;-77
2022/10/26 02:08:16;;;;;;;23.25;8.75;;;;;;;14.71;63.23;95618.06;4998069;28;20745;-77
2022/10/26 02:11:08;;;;;;;26.33;7.63;;;;;;;15.14;63.23;95696.22;5000213;28;20411;-77
2022/10/26 02:13:52;;;;;;;23.10;7.78;;;;;;;15.23;63.29;95699.81;4999520;28;20050;-77
2022/10/26 02:16:24;;;;;;;32.72;8.90;;;;;;;15.17;62.83;95696.44;5019597;28;20048;-77
2022/10/26 02:18:59;;;;;;;25.13;7.75;;;;;;;15.28;62.94;95708.56;5019470;28;20475;-77
2022/10/26 02:21:30;;;;;;;28.42;7.93;;;;;;;15.22;62.97;95699.03;5017866;28;20059;-77
2022/10/26 02:23:58;;;;;;;25.60;8.18;;;;;;;15.10;63.09;95676.53;5017446;28;20049;-77
2022/10/26 02:26:27;;;;;;;28.35;8.20;;;;;;;14.79;62.93;95633.44;5017627;28;20053;-76
2022/10/26 02:28:57;;;;;;;19.67;8.05;;;;;;;15.25;62.99;95705.69;5019192;28;20040;-77
2022/10/26 02:31:24;;;;;;;22.15;7.82;;;;;;;14.37;63.25;95608.31;5033531;28;20049;-77
2022/10/26 02:33:53;;;;;;;18.17;7.20;;;;;;;14.93;62.67;95667.13;5013720;28;20054;-76
2022/10/26 02:36:26;;;;;;;21.33;7.93;;;;;;;14.86;62.45;95649.88;5016336;28;20056;-76
2022/10/26 02:38:54;;;;;;;30.15;7.68;;;;;;;14.91;62.26;95657.81;5016748;28;20716;-77
2022/10/26 02:41:22;;;;;;;24.98;8.75;;;;;;;14.63;62.03;95598.13;5016535;28;20041;-76
2022/10/26 02:43:55;;;;;;;21.75;8.75;;;;;;;15.47;61.79;95713.09;5000154;28;20048;-77
2022/10/26 02:46:24;;;;;;;27.63;8.30;;;;;;;15.49;61.64;95711.72;5018758;28;20411;-77
2022/10/26 02:48:50;;;;;;;23.30;8.63;;;;;;;15.28;62.01;95695.19;5018771;28;20057;-77
2022/10/26 02:51:15;;;;;;;14.55;7.47;;;;;;;15.36;61.86;95717.78;5033428;28;20049;-77
2022/10/26 02:53:58;;;;;;;16.63;7.72;;;;;;;14.95;62.17;95666.84;5018677;28;20110;-77
2022/10/26 02:56:29;;;;;;;19.67;9.35;;;;;;;15.16;62.30;95705.53;5033221;28;20092;-77
2022/10/26 02:59:01;;;;;;;25.65;9.73;;;;;;;15.15;62.15;95703.94;5017334;28;20045;-77
2022/10/26 03:01:27;;;;;;;;;;;;;;;15.21;61.85;95721.47;5018992;28;20041;-77
2022/10/26 03:03:56;;;;;;;23.05;9.52;;;;;;;14.94;62.10;95695.44;5017579;28;19951;-75
2022/10/26 03:06:23;;;;;;;23.58;9.82;;;;;;;15.13;61.93;95732.81;5017904;28;20049;-77
2022/10/26 03:08:49;;;;;;;36.53;10.50;;;;;;;14.97;62.45;95736.78;5032930;28;20143;-77
2022/10/26 03:11:15;;;;;;;27.08;11.88;;;;;;;14.75;62.80;95723.97;5017671;28;20124;-77
2022/10/26 03:13:40;;;;;;;29.33;10.50;;;;;;;14.72;62.83;95734.44;5018042;28;20049;-77
2022/10/26 03:16:06;;;;;;;26.58;10.90;;;;;;;14.77;63.07;95735.16;5017992;28;20042;-77
2022/10/26 03:18:31;;;;;;;28.33;10.98;;;;;;;14.45;63.10;95695.78;5016372;28;20829;-77
2022/10/26 03:20:56;;;;;;;24.30;10.40;;;;;;;14.73;63.74;95754.69;5018190;28;20044;-77
2022/10/26 03:23:22;;;;;;;24.75;10.70;;;;;;;14.68;64.36;95750.22;5028555;28;20385;-77
2022/10/26 03:25:47;;;;;;;25.85;10.02;;;;;;;14.54;65.02;95752.00;5036330;28;20044;-77
2022/10/26 03:28:13;;;;;;;32.38;11.02;;;;;;;13.94;65.97;95686.69;5038174;28;20087;-77
2022/10/26 03:30:38;;;;;;;28.20;10.82;;;;;;;14.07;66.71;95705.50;5019536;28;20114;-77
2022/10/26 03:33:04;;;;;;;23.13;9.70;;;;;;;13.69;67.16;95659.19;5037918;28;20096;-77
2022/10/26 03:35:29;;;;;;;21.00;8.95;;;;;;;13.66;67.96;95678.41;5038112;28;20058;-77
2022/10/26 03:37:55;;;;;;;28.80;10.07;;;;;;;13.58;67.85;95664.91;5037592;28;20045;-77
2022/10/26 03:40:20;;;;;;;29.50;9.73;;;;;;;13.77;68.43;95697.78;5019234;28;20123;-77
2022/10/26 03:42:46;;;;;;;16.65;9.02;;;;;;;14.02;68.26;95742.88;5016486;28;20151;-77
2022/10/26 03:45:11;;;;;;;21.00;8.82;;;;;;;13.85;68.37;95721.97;5016416;28;20072;-76
2022/10/26 03:47:47;;;;;;;25.60;9.82;;;;;;;13.83;68.38;95723.31;5015469;28;20206;-77
2022/10/26 03:50:17;;;;;;;20.58;9.32;;;;;;;13.80;68.74;95714.03;5015801;28;20552;-76
2022/10/26 03:52:43;;;;;;;22.73;9.25;;;;;;;13.70;68.46;95705.31;5008135;28;20045;-77
2022/10/26 03:55:09;;;;;;;21.38;9.07;;;;;;;13.96;68.41;95719.22;5035287;28;20110;-77
2022/10/26 03:57:40;;;;;;;24.42;9.88;;;;;;;13.98;68.55;95733.03;5037307;28;20522;-76
2022/10/26 04:00:06;;;;;;;23.52;8.52;;;;;;;13.68;68.65;95683.47;5036700;28;20060;-76
2022/10/26 04:02:31;;;;;;;23.20;10.75;;;;;;;13.89;68.91;95732.84;5036269;28;20044;-76
2022/10/26 04:04:57;;;;;;;23.92;10.02;;;;;;;13.78;69.10;95721.50;5029969;28;20148;-77
2022/10/26 04:07:22;;;;;;;29.13;10.05;;;;;;;13.83;69.15;95732.13;4998179;28;20182;-76
2022/10/26 04:09:48;;;;;;;25.65;8.77;;;;;;;13.95;69.42;95754.97;5016091;28;20155;-76
2022/10/26 04:12:13;;;;;;;16.63;8.48;;;;;;;13.92;69.52;95761.63;5016521;28;20116;-77
2022/10/26 04:14:41;;;;;;;22.77;9.75;;;;;;;13.98;69.47;95762.38;5014636;28;20052;-77
2022/10/26 04:17:06;;;;;;;21.85;8.52;;;;;;;13.75;69.23;95705.25;4981777;28;20060;-76
2022/10/26 04:19:33;;;;;;;24.20;9.55;;;;;;;13.65;69.13;95684.03;5009141;28;20045;-76
2022/10/26 04:21:58;;;;;;;22.33;9.13;;;;;;;14.16;69.02;95761.69;4988893;28;20045;-76
2022/10/26 04:24:24;;;;;;;17.90;8.32;;;;;;;13.66;68.70;95681.06;4993602;28;20179;-76
2022/10/26 04:26:49;;;;;;;23.83;9.27;;;;;;;14.14;68.57;95745.16;4998711;28;20045;-77
2022/10/26 04:29:14;;;;;;;25.02;10.65;;;;;;;14.10;68.25;95733.47;4986812;28;20050;-77
2022/10/26 04:31:41;;;;;;;20.55;9.57;;;;;;;14.18;68.12;95736.34;4972079;28;20042;-77
2022/10/26 04:34:06;;;;;;;26.23;10.25;;;;;;;13.78;67.59;95665.53;4991275;28;20771;-77
2022/10/26 04:36:33;;;;;;;24.63;11.43;;;;;;;14.21;67.52;95751.75;4981891;28;20050;-77
2022/10/26 04:38:58;;;;;;;20.55;10.50;;;;;;;14.13;67.84;95744.38;4992002;28;20048;-77
2022/10/26 04:41:24;;;;;;;19.85;10.77;;;;;;;14.28;68.51;95767.44;5008900;28;20045;-77
2022/10/26 04:43:49;;;;;;;24.33;10.13;;;;;;;14.15;68.54;95765.44;4990140;28;20038;-78
2022/10/26 04:46:14;;;;;;;30.42;10.88;;;;;;;14.02;69.13;95750.88;5017383;28;20049;-78
2022/10/26 04:48:40;;;;;;;30.67;11.70;;;;;;;13.77;69.23;95721.78;5019049;28;20574;-76
2022/10/26 04:51:05;;;;;;;30.15;10.85;;;;;;;13.75;69.05;95727.38;4996395;28;20041;-76
2022/10/26 04:53:32;;;;;;;38.72;11.20;;;;;;;13.95;69.25;95768.28;4998847;28;20096;-76
2022/10/26 04:55:59;;;;;;;27.75;10.55;;;;;;;14.04;69.25;95777.25;4984152;28;20042;-76
2022/10/26 04:58:26;;;;;;;25.63;10.20;;;;;;;13.64;69.03;95736.56;5003955;28;20210;-76
2022/10/26 05:00:51;;;;;;;34.90;10.90;;;;;;;13.88;69.40;95757.94;4991517;28;20040;-76
2022/10/26 05:03:17;;;;;;;34.90;12.02;;;;;;;13.71;69.29;95746.88;4991686;28;20050;-76
2022/10/26 05:05:42;;;;;;;47.78;13.35;;;;;;;13.91;68.91;95757.38;5002812;28;20048;-76
2022/10/26 05:08:08;;;;;;;21.77;10.90;;;;;;;13.49;68.33;95675.38;5004483;28;20065;-78
2022/10/26 05:10:33;;;;;;;34.95;12.98;;;;;;;13.99;68.07;95738.09;4999512;28;20053;-79
2022/10/26 05:12:59;;;;;;;37.50;13.43;;;;;;;14.35;67.59;95785.78;5004979;28;20041;-79
2022/10/26 05:15:25;;;;;;;33.53;12.93;;;;;;;13.98;67.65;95728.50;4996614;28;20052;-79
2022/10/26 05:17:56;;;;;;;34.38;12.18;;;;;;;14.09;67.85;95761.22;4985522;28;20033;-78
2022/10/26 05:20:27;;;;;;;35.58;12.50;;;;;;;14.22;67.89;95788.03;5007697;28;20048;-80
2022/10/26 05:22:53;;;;;;;45.85;14.15;;;;;;;13.81;68.00;95739.59;4987258;28;20058;-78
2022/10/26 05:25:18;;;;;;;41.78;15.05;;;;;;;13.97;68.00;95776.78;4979996;28;20081;-77
2022/10/26 05:27:44;;;;;;;44.25;15.38;;;;;;;13.90;67.75;95742.44;4998780;28;20049;-78
2022/10/26 05:30:10;;;;;;;38.35;14.52;;;;;;;13.80;67.54;95735.34;5001857;28;20048;-77
2022/10/26 05:32:35;;;;;;;40.42;16.27;;;;;;;13.89;67.36;95741.66;5000006;28;20034;-77
2022/10/26 05:35:01;;;;;;;43.70;14.45;;;;;;;14.22;67.78;95805.91;4996270;28;20551;-77
2022/10/26 05:37:29;;;;;;;44.10;15.10;;;;;;;14.30;67.18;95810.63;4992238;28;20454;-77
2022/10/26 05:39:55;;;;;;;46.40;15.35;;;;;;;14.01;66.75;95767.16;4999083;28;20046;-76
2022/10/26 05:42:20;;;;;;;38.17;14.25;;;;;;;14.13;65.98;95775.56;5000224;28;20503;-77
2022/10/26 05:44:46;;;;;;;40.05;13.20;;;;;;;14.47;65.87;95816.38;4998754;28;20509;-76
2022/10/26 05:47:12;;;;;;;38.47;14.00;;;;;;;14.48;65.44;95825.19;4996643;28;20099;-76
2022/10/26 05:49:37;;;;;;;39.83;14.98;;;;;;;14.26;65.58;95791.75;5006913;28;20056;-75
2022/10/26 05:52:03;;;;;;;36.08;15.23;;;;;;;14.15;65.28;95790.22;4998908;28;20053;-77
2022/10/26 05:54:28;;;;;;;46.38;16.20;;;;;;;14.35;65.63;95829.25;4999048;28;20049;-77
2022/10/26 05:56:54;;;;;;;48.38;16.00;;;;;;;14.43;65.61;95831.34;4999264;28;20053;-76
2022/10/26 05:59:20;;;;;;;49.47;16.65;;;;;;;14.41;64.92;95820.19;5002548;28;20104;-75
2022/10/26 06:01:45;;;;;;;39.97;15.85;;;;;;;14.54;64.62;95826.72;4996550;28;20061;-77
2022/10/26 06:04:23;;;;;;;56.88;15.70;;;;;;;14.55;64.92;95833.66;4988818;28;20052;-78
2022/10/26 06:06:53;;;;;;;44.03;17.05;;;;;;;13.84;64.68;95720.38;4996525;28;20071;-83
2022/10/26 06:09:19;;;;;;;51.53;16.50;;;;;;;13.44;64.44;95662.09;4976372;28;20077;-78
2022/10/26 06:11:45;;;;;;;43.95;16.88;;;;;;;14.52;64.75;95832.34;4987933;28;20049;-78
2022/10/26 06:14:11;;;;;;;37.90;15.68;;;;;;;14.39;64.60;95816.19;4983593;28;20049;-79
2022/10/26 06:16:56;;;;;;;54.63;16.83;;;;;;;13.76;64.93;95734.31;5001523;28;20084;-78
2022/10/26 06:19:45;;;;;;;36.10;13.68;;;;;;;12.84;66.45;95599.41;4989573;28;20356;-78
2022/10/26 06:22:35;;;;;;;63.92;16.58;;;;;;;14.51;66.46;95849.41;5000531;28;20041;-76
2022/10/26 06:25:25;;;;;;;50.08;18.85;;;;;;;14.42;66.43;95845.75;5016081;28;20049;-76
2022/10/26 06:28:33;;;;;;;30.42;14.95;;;;;;;14.33;67.02;95850.13;5031404;28;20049;-77
2022/10/26 06:30:59;;;;;;;36.13;14.68;;;;;;;14.16;67.01;95810.50;4986935;28;20050;-77
2022/10/26 06:33:25;;;;;;;35.33;14.43;;;;;;;13.89;67.46;95780.84;5002557;28;20107;-77
2022/10/26 06:36:30;;;;;;;38.35;12.98;;;;;;;14.30;68.51;95854.13;5021268;28;20484;-78
2022/10/26 06:39:00;;;;;;;27.52;12.13;;;;;;;14.29;68.43;95863.19;5021769;28;20364;-77
2022/10/26 06:41:26;;;;;;;36.45;13.77;;;;;;;14.30;68.29;95859.47;5027146;28;20081;-77
2022/10/26 06:43:52;;;;;;;28.30;11.15;;;;;;;13.83;68.92;95804.09;5020163;28;20069;-76
2022/10/26 06:46:33;;;;;;;32.00;11.63;;;;;;;14.27;69.01;95861.88;5002709;28;20247;-76
2022/10/26 06:49:14;;;;;;;24.10;9.50;;;;;;;14.29;68.99;95867.75;5023746;28;20038;-77
2022/10/26 06:52:03;;;;;;;21.85;9.43;;;;;;;14.23;68.56;95850.19;5000217;28;20037;-78
2022/10/26 06:54:48;;;;;;;30.10;12.65;;;;;;;14.41;68.57;95875.41;5011548;28;20037;-80
2022/10/26 06:57:16;;;;;;;25.35;10.75;;;;;;;14.35;68.70;95868.47;5019049;28;20037;-79
2022/10/26 07:00:17;;;;;;;23.05;9.68;;;;;;;14.23;68.89;95860.84;5020350;28;20033;-80
2022/10/26 07:02:43;;;;;;;20.08;9.50;;;;;;;14.18;68.43;95847.56;4988479;28;20037;-79
2022/10/26 07:05:11;;;;;;;29.48;10.15;;;;;;;14.01;68.40;95799.16;5007725;28;20044;-78
2022/10/26 07:07:41;;;;;;;30.08;11.65;;;;;;;14.19;68.63;95835.81;5024737;28;20040;-74
2022/10/26 07:10:07;;;;;;;28.05;11.20;;;;;;;14.25;68.25;95816.03;5018631;28;20041;-76
2022/10/26 07:12:32;;;;;;;23.48;10.57;;;;;;;14.61;68.42;95885.91;5006310;28;20064;-75
2022/10/26 07:14:59;;;;;;;19.40;9.20;;;;;;;14.43;67.93;95843.91;5012365;28;20291;-76
2022/10/26 07:17:27;;;;;;;25.10;10.07;;;;;;;14.53;67.72;95836.59;5020558;28;20668;-76
2022/10/26 07:19:53;;;;;;;33.70;10.02;;;;;;;14.32;67.55;95797.03;5019071;28;20118;-78
2022/10/26 07:22:18;;;;;;;26.60;10.68;;;;;;;14.55;67.67;95841.66;5014224;28;20579;-77
2022/10/26 07:24:44;;;;;;;21.45;10.50;;;;;;;14.84;67.58;95881.69;4999673;28;20065;-79
2022/10/26 07:27:10;;;;;;;25.88;9.43;;;;;;;14.75;67.17;95854.78;5018585;28;20087;-79
2022/10/26 07:29:35;;;;;;;30.08;9.85;;;;;;;14.32;67.61;95807.69;5023553;28;20052;-79
2022/10/26 07:32:01;;;;;;;28.80;10.13;;;;;;;14.92;67.37;95876.53;5002843;28;20241;-78
2022/10/26 07:34:26;;;;;;;22.17;9.20;;;;;;;15.00;66.79;95875.09;5002829;28;20052;-78
2022/10/26 07:36:52;;;;;;;20.90;10.05;;;;;;;14.94;66.40;95871.69;4986574;28;20595;-78
2022/10/26 07:39:17;;;;;;;19.88;9.15;;;;;;;14.55;66.67;95799.75;5017633;28;20446;-78
2022/10/26 07:41:44;;;;;;;19.95;9.68;;;;;;;14.82;66.57;95851.78;5024488;28;20412;-77
2022/10/26 07:44:10;;;;;;;22.17;8.65;;;;;;;14.79;66.53;95847.81;5001579;28;20405;-77
2022/10/26 07:46:35;;;;;;;19.90;9.63;;;;;;;14.59;66.80;95818.66;5000716;28;20041;-76
2022/10/26 07:49:01;;;;;;;20.00;9.80;;;;;;;14.93;66.63;95862.09;5013348;28;20378;-77
2022/10/26 07:51:26;;;;;;;19.33;10.50;;;;;;;14.67;66.37;95796.69;5009423;28;20053;-77
2022/10/26 07:53:52;;;;;;;20.92;9.50;;;;;;;14.62;66.10;95783.41;4997572;28;20033;-78
2022/10/26 07:56:17;;;;;;;15.55;9.20;;;;;;;14.85;65.87;95814.63;5013704;28;20049;-79
2022/10/26 07:58:42;;;;;;;24.17;9.45;;;;;;;14.83;65.86;95802.66;4999316;28;20069;-77
2022/10/26 08:01:13;;;;;;;16.02;9.10;;;;;;;15.39;65.70;95861.56;4998185;28;20047;-78
2022/10/26 08:03:39;;;;;;;18.15;9.43;;;;;;;14.87;65.49;95768.97;5017906;28;20053;-78
2022/10/26 08:06:06;;;;;;;31.77;10.45;;;;;;;15.42;65.56;95864.44;4994044;28;20045;-78
2022/10/26 08:08:32;;;;;;;25.67;10.23;;;;;;;15.47;65.49;95866.25;4999414;28;20486;-78
2022/10/26 08:10:58;;;;;;;23.40;9.10;;;;;;;15.48;64.77;95845.66;4998439;28;20045;-80
2022/10/26 08:13:24;;;;;;;28.45;9.27;;;;;;;15.70;64.67;95859.28;5011661;28;20450;-78
2022/10/26 08:15:49;;;;;;;24.27;10.40;;;;;;;15.80;64.17;95859.94;5019382;28;20041;-78
2022/10/26 08:18:15;;;;;;;29.88;9.10;;;;;;;15.52;63.98;95827.97;5018375;28;20132;-79
2022/10/26 08:20:40;;;;;;;26.73;9.30;;;;;;;15.72;64.27;95843.75;5019696;28;20085;-78
2022/10/26 08:23:07;;;;;;;19.15;8.95;;;;;;;15.91;63.92;95860.59;5001584;28;20072;-78
2022/10/26 08:25:33;;;;;;;19.17;8.13;;;;;;;15.81;62.97;95839.34;5016047;28;20063;-78
2022/10/26 08:28:03;;;;;;;19.52;7.78;;;;;;;15.93;62.97;95853.06;5014127;28;20041;-78
2022/10/26 08:30:30;;;;;;;26.40;9.23;;;;;;;15.82;62.77;95825.69;5013136;28;20124;-79
2022/10/26 08:33:00;;;;;;;14.77;7.88;;;;;;;15.82;62.79;95814.19;5019702;28;20169;-78
2022/10/26 08:35:26;;;;;;;21.65;7.85;;;;;;;15.80;62.40;95786.94;5006569;28;20060;-78
2022/10/26 08:37:52;;;;;;;13.45;7.55;;;;;;;15.79;61.77;95783.44;4998836;28;20049;-78
2022/10/26 08:40:20;;;;;;;20.92;7.60;;;;;;;15.73;61.60;95744.50;5001401;28;20220;-79
2022/10/26 08:42:50;;;;;;;12.20;5.78;;;;;;;16.00;60.47;95799.19;5021997;28;20517;-81
2022/10/26 08:45:27;;;;;;;17.90;6.50;;;;;;;16.23;60.39;95838.44;5005116;28;20045;-81
2022/10/26 08:47:59;;;;;;;14.50;6.43;;;;;;;16.18;60.20;95815.19;5003599;28;20046;-79
2022/10/26 08:50:36;;;;;;;14.60;6.25;;;;;;;16.13;60.33;95809.94;5009645;28;20781;-78
2022/10/26 08:53:32;;;;;;;11.85;6.13;;;;;;;16.49;59.90;95847.59;5005254;28;20879;-79
2022/10/26 08:56:24;;;;;;;13.57;5.55;;;;;;;16.26;59.90;95818.28;5001772;28;20046;-80
2022/10/26 08:58:57;;;;;;;15.27;6.32;;;;;;;16.47;60.09;95862.38;4995204;28;20144;-78
2022/10/26 09:01:23;;;;;;;13.65;5.35;;;;;;;16.02;60.00;95800.47;4999818;28;20272;-80
2022/10/26 09:03:49;;;;;;;18.30;5.80;;;;;;;16.25;60.07;95830.88;5001694;28;20052;-79
2022/10/26 09:06:53;;;;;;;22.98;7.07;;;;;;;16.50;59.54;95861.78;5010587;28;20041;-79
2022/10/26 09:09:48;;;;;;;23.42;5.75;;;;;;;16.63;58.51;95853.00;5025283;28;20053;-79
2022/10/26 09:12:18;;;;;;;19.23;5.60;;;;;;;16.46;58.40;95816.09;5016131;28;20090;-78
2022/10/26 09:15:11;;;;;;;18.13;5.20;;;;;;;16.70;58.51;95852.66;5006205;28;20041;-80
2022/10/26 09:17:48;;;;;;;10.98;4.88;;;;;;;16.17;58.13;95765.44;5018994;28;20125;-79
2022/10/26 09:20:45;;;;;;;15.13;5.65;;;;;;;16.79;57.49;95854.31;5010674;28;20200;-79
2022/10/26 09:23:13;;;;;;;9.75;4.72;;;;;;;16.85;57.01;95855.84;5008421;28;20466;-79
2022/10/26 09:25:40;;;;;;;9.18;4.68;;;;;;;17.02;56.69;95849.09;5005316;28;20080;-79
2022/10/26 09:28:13;;;;;;;15.23;4.95;;;;;;;17.10;56.91;95849.19;5001420;28;20052;-79
2022/10/26 09:30:38;;;;;;;17.35;4.93;;;;;;;16.96;56.38;95835.00;5029103;28;20052;-77
2022/10/26 09:33:22;;;;;;;14.95;4.88;;;;;;;16.69;56.09;95798.28;5023514;28;20090;-80
2022/10/26 09:35:57;;;;;;;7.20;3.90;;;;;;;16.69;54.26;95784.91;5026908;28;20109;-80
2022/10/26 09:38:28;;;;;;;11.00;4.13;;;;;;;17.21;54.88;95850.59;5022071;28;20674;-77
2022/10/26 09:41:21;;;;;;;13.32;4.03;;;;;;;16.45;54.41;95704.72;5015931;28;20045;-77
2022/10/26 09:43:59;;;;;;;8.57;3.60;;;;;;;17.30;52.90;95846.13;5004055;28;20750;-77
2022/10/26 09:46:30;;;;;;;7.43;3.00;;;;;;;17.19;52.34;95815.25;5014604;28;20442;-77
2022/10/26 09:49:07;;;;;;;6.75;3.13;;;;;;;17.00;52.05;95768.22;5019264;28;20045;-77
2022/10/26 09:51:37;;;;;;;7.43;3.38;;;;;;;17.91;52.24;95818.00;5018632;28;20478;-77
2022/10/26 09:54:19;;;;;;;7.03;3.83;;;;;;;18.80;48.99;95788.38;5016003;28;20048;-78
2022/10/26 09:56:50;;;;;;;9.05;3.03;;;;;;;20.04;46.12;95810.28;5024667;28;20033;-78
2022/10/26 09:59:18;;;;;;;11.82;3.40;;;;;;;21.15;43.34;95813.78;5016098;28;20751;-77
2022/10/26 10:01:44;;;;;;;8.45;2.92;;;;;;;22.04;40.06;95786.75;5016562;28;20040;-77
2022/10/26 10:04:24;;;;;;;8.88;3.10;;;;;;;23.02;38.07;95816.44;5020588;28;20045;-80
2022/10/26 10:07:02;;;;;;;11.82;3.05;;;;;;;24.31;35.85;95824.63;5001593;28;20646;-77
2022/10/26 10:09:28;;;;;;;8.95;3.65;;;;;;;25.16;35.03;95820.66;5014278;28;20045;-78
2022/10/26 10:12:01;;;;;;;10.25;3.08;;;;;;;25.98;33.31;95810.53;5021023;28;20041;-76
2022/10/26 10:14:33;;;;;;;8.82;3.10;;;;;;;25.92;32.79;95806.53;5020842;28;20064;-76
2022/10/26 10:17:17;;;;;;;11.88;3.10;;;;;;;25.79;32.76;95756.16;5019513;28;20041;-80
2022/10/26 10:19:43;;;;;;;10.63;2.63;;;;;;;26.64;31.64;95786.94;4995481;28;20129;-79
2022/10/26 10:22:33;;;;;;;9.07;2.90;;;;;;;26.73;31.18;95761.09;4997969;28;20176;-78
2022/10/26 10:25:22;;;;;;;10.23;2.60;;;;;;;26.62;30.75;95803.66;4982136;28;20711;-78
2022/10/26 10:27:54;;;;;;;9.88;2.78;;;;;;;26.05;31.18;95744.66;4991166;28;20039;-77
2022/10/26 10:30:27;;;;;;;6.60;2.53;;;;;;;26.02;31.43;95792.34;4995598;28;20042;-78
2022/10/26 10:33:10;;;;;;;6.93;2.65;;;;;;;26.07;31.90;95792.06;4964883;28;20037;-78
2022/10/26 10:35:37;;;;;;;12.57;6.13;;;;;;;25.86;32.23;95793.56;5005660;28;20761;-77
2022/10/26 10:38:03;;;;;;;8.13;2.40;;;;;;;25.08;33.12;95786.34;4996914;28;20042;-79
2022/10/26 10:40:30;;;;;;;6.85;2.38;;;;;;;24.93;33.12;95760.78;4985846;28;20119;-77
2022/10/26 10:43:13;;;;;;;13.27;2.67;;;;;;;25.44;32.65;95780.59;5002530;28;20038;-78
2022/10/26 10:45:39;;;;;;;5.70;2.58;;;;;;;24.56;32.34;95630.06;4986542;28;20076;-78
2022/10/26 10:48:11;;;;;;;6.85;2.78;;;;;;;24.59;33.57;95783.91;5002128;28;20038;-78
2022/10/26 10:50:50;;;;;;;5.45;2.50;;;;;;;24.32;33.90;95719.69;4987499;28;20030;-77
2022/10/26 10:53:24;;;;;;;9.63;2.60;;;;;;;24.91;33.36;95765.78;5003545;28;20140;-77
2022/10/26 10:56:15;;;;;;;6.00;2.50;;;;;;;24.69;33.77;95775.28;5000646;28;20030;-79
2022/10/26 10:58:56;;;;;;;16.17;2.92;;;;;;;24.72;33.85;95774.56;4989536;28;20034;-78
2022/10/26 11:01:25;;;;;;;9.07;2.50;;;;;;;24.61;33.85;95759.97;5002213;28;20042;-78
2022/10/26 11:04:12;;;;;;;6.15;2.35;;;;;;;24.09;34.94;95769.00;5005217;28;20120;-79
2022/10/26 11:06:41;;;;;;;7.50;2.70;;;;;;;23.86;35.58;95767.97;4987850;28;20045;-78
2022/10/26 11:09:11;;;;;;;6.30;1.95;;;;;;;23.73;36.07;95755.56;4984755;28;20046;-77
2022/10/26 11:11:43;;;;;;;7.18;2.45;;;;;;;23.30;36.12;95727.22;4982009;28;20669;-81
2022/10/26 11:14:11;;;;;;;12.25;2.97;;;;;;;23.55;36.09;95757.78;4975448;28;20041;-78
2022/10/26 11:16:43;;;;;;;9.25;3.28;;;;;;;23.39;36.60;95743.34;4980981;28;20042;-77
2022/10/26 11:19:32;;;;;;;8.45;2.83;;;;;;;22.73;36.70;95637.34;4973544;28;20536;-76
2022/10/26 11:21:58;;;;;;;10.25;2.90;;;;;;;23.13;36.59;95703.13;4989727;28;20484;-77
2022/10/26 11:24:37;;;;;;;6.40;2.10;;;;;;;23.78;35.65;95747.22;5021046;28;20091;-77
2022/10/26 11:27:32;;;;;;;13.18;2.75;;;;;;;24.07;35.55;95757.72;5015328;28;20048;-79
2022/10/26 11:30:01;;;;;;;8.70;2.65;;;;;;;23.32;35.76;95762.06;5017788;28;20041;-77
2022/10/26 11:32:34;;;;;;;6.90;1.98;;;;;;;23.58;35.69;95750.88;5023479;28;20033;-78
2022/10/26 11:35:15;;;;;;;8.57;2.15;;;;;;;23.39;35.98;95756.88;5024749;28;20152;-78
2022/10/26 11:37:48;;;;;;;4.97;2.40;;;;;;;23.35;36.15;95753.25;5002402;28;20052;-78
2022/10/26 11:40:31;;;;;;;5.72;2.13;;;;;;;22.91;36.53;95698.19;5021554;28;20033;-77
2022/10/26 11:43:17;;;;;;;7.82;2.40;;;;;;;23.26;35.49;95677.63;4998146;28;20042;-79